Time;durP1;ratioP1;P1;durP2;ratioP2;P2;SDS_P1;SDS_P2;PMS_P1;PMS_P2;Temp;Humidity;BMP_temperature;BMP_pressure;BME280_temperature;BME280_humidity;BME280_pressure;Samples;Min_cycle;Max_cycle;Signal;HPM_P1;HPM_P2
2022/04/17 00:00:57;;;;;;;3.28;1.95;;;;;;;4.64;52.73;97725.47;2085631;28;20220;-64
2022/04/17 00:02:00;;;;;;;8.45;2.08;;;;;;;4.72;52.44;97731.28;2083580;28;20197;-64
2022/04/17 00:03:02;;;;;;;3.88;1.90;;;;;;;4.73;52.60;97720.03;2085404;28;20224;-64
2022/04/17 00:04:04;;;;;;;3.00;2.25;;;;;;;4.56;52.06;97718.72;2086546;28;20193;-63
2022/04/17 00:05:06;;;;;;;3.72;1.92;;;;;;;4.53;52.59;97730.97;2088247;28;20192;-64
2022/04/17 00:06:08;;;;;;;6.63;2.20;;;;;;;4.56;52.41;97712.69;2087967;28;20739;-64
2022/04/17 00:07:09;;;;;;;3.50;2.20;;;;;;;4.61;52.67;97735.94;2085157;28;20212;-64
2022/04/17 00:08:11;;;;;;;5.88;2.63;;;;;;;4.59;52.58;97732.50;2086297;28;20200;-64
2022/04/17 00:09:12;;;;;;;4.43;2.20;;;;;;;4.47;52.51;97708.63;2076093;28;20660;-64
2022/04/17 00:10:14;;;;;;;5.15;2.10;;;;;;;4.63;52.79;97734.16;2076872;28;20727;-64
2022/04/17 00:11:16;;;;;;;5.28;2.28;;;;;;;4.54;52.34;97717.06;2086230;28;20562;-64
2022/04/17 00:12:17;;;;;;;4.30;2.05;;;;;;;4.64;52.58;97735.84;2077894;28;20204;-63
2022/04/17 00:13:20;;;;;;;9.75;2.40;;;;;;;4.54;52.75;97732.66;2076652;28;20206;-63
2022/04/17 00:14:21;;;;;;;8.60;2.78;;;;;;;4.63;52.62;97728.97;2084200;28;20847;-63
2022/04/17 00:15:23;;;;;;;4.15;2.03;;;;;;;4.44;52.41;97694.88;2083444;28;20197;-64
2022/04/17 00:16:24;;;;;;;6.25;2.55;;;;;;;4.52;52.54;97703.31;2085331;28;20197;-64
2022/04/17 00:17:26;;;;;;;3.35;2.38;;;;;;;4.54;52.79;97715.31;2085416;28;20201;-64
2022/04/17 00:18:27;;;;;;;3.55;2.20;;;;;;;4.66;52.54;97723.69;2085888;28;20614;-64
2022/04/17 00:19:29;;;;;;;3.85;2.40;;;;;;;4.56;52.65;97718.72;2085598;28;20204;-64
2022/04/17 00:20:31;;;;;;;4.30;2.25;;;;;;;4.58;52.80;97710.91;2085464;28;20220;-64
2022/04/17 00:21:33;;;;;;;9.00;2.83;;;;;;;4.66;52.62;97721.94;2085771;28;20688;-64
2022/04/17 00:22:34;;;;;;;4.97;2.80;;;;;;;4.65;52.54;97719.41;2086587;28;20201;-64
2022/04/17 00:23:35;;;;;;;4.38;2.17;;;;;;;4.53;52.61;97713.63;2082877;28;20306;-64
2022/04/17 00:24:37;;;;;;;5.32;2.30;;;;;;;4.51;52.89;97715.44;2086227;28;20192;-64
2022/04/17 00:25:38;;;;;;;9.15;2.70;;;;;;;4.54;52.99;97717.06;2086626;28;20793;-64
2022/04/17 00:26:40;;;;;;;4.22;2.75;;;;;;;4.62;52.86;97722.06;2081930;28;20211;-64
2022/04/17 00:27:42;;;;;;;6.35;2.83;;;;;;;4.61;52.86;97717.78;2082836;28;20672;-64
2022/04/17 00:28:43;;;;;;;5.30;2.42;;;;;;;4.54;53.28;97712.72;2083926;28;20195;-64
2022/04/17 00:29:45;;;;;;;5.32;2.35;;;;;;;4.54;53.27;97720.50;2084698;28;20204;-64
2022/04/17 00:30:47;;;;;;;7.35;2.50;;;;;;;4.42;53.18;97694.91;2085291;28;20220;-64
2022/04/17 00:31:48;;;;;;;7.95;2.30;;;;;;;4.49;53.08;97713.78;2086333;28;20192;-64
2022/04/17 00:32:50;;;;;;;6.65;2.63;;;;;;;4.49;53.31;97714.63;2084763;28;20193;-64
2022/04/17 00:33:51;;;;;;;8.07;2.60;;;;;;;4.49;53.16;97711.19;2086119;28;20203;-63
2022/04/17 00:34:53;;;;;;;3.42;2.22;;;;;;;4.53;53.12;97712.78;2087476;28;20201;-63
2022/04/17 00:35:54;;;;;;;6.78;2.80;;;;;;;4.49;52.99;97708.59;2086579;28;20228;-64
2022/04/17 00:37:00;;;;;;;10.05;3.00;;;;;;;4.41;53.49;97705.31;2085139;28;20546;-63
2022/04/17 00:38:02;;;;;;;3.92;2.08;;;;;;;4.23;53.35;97670.34;2084396;28;20236;-64
2022/04/17 00:39:03;;;;;;;3.05;2.13;;;;;;;4.42;53.45;97707.88;2083626;28;20197;-64
2022/04/17 00:40:06;;;;;;;6.10;2.42;;;;;;;4.39;53.46;97700.19;2079807;28;20193;-64
2022/04/17 00:41:07;;;;;;;3.65;2.30;;;;;;;4.44;53.32;97702.66;2079895;28;20236;-64
2022/04/17 00:42:10;;;;;;;3.20;2.05;;;;;;;4.39;53.44;97686.34;2086882;28;20277;-64
2022/04/17 00:43:30;;;;;;;8.27;3.20;;;;;;;4.36;53.42;97698.50;2085262;28;20208;-64
2022/04/17 00:44:32;;;;;;;5.47;2.70;;;;;;;4.38;53.54;97708.84;2084655;28;20200;-64
2022/04/17 00:45:34;;;;;;;3.85;2.35;;;;;;;4.32;53.64;97702.09;2084886;28;20228;-64
2022/04/17 00:46:35;;;;;;;8.27;2.45;;;;;;;4.32;53.95;97690.88;2084530;28;20197;-64
2022/04/17 00:47:37;;;;;;;6.57;2.63;;;;;;;4.34;53.66;97704.66;2087950;28;20196;-64
2022/04/17 00:48:39;;;;;;;4.05;2.40;;;;;;;4.28;53.90;97691.84;2084171;28;20774;-64
2022/04/17 00:49:41;;;;;;;4.63;3.03;;;;;;;4.25;53.68;97702.28;2084069;28;20204;-64
2022/04/17 00:50:44;;;;;;;6.35;2.13;;;;;;;4.21;54.23;97698.91;2084237;28;20223;-64
2022/04/17 00:51:47;;;;;;;5.28;2.65;;;;;;;4.22;53.71;97692.00;2085121;28;20197;-63
2022/04/17 00:52:48;;;;;;;4.95;1.85;;;;;;;4.16;54.39;97687.81;2085125;28;20190;-64
2022/04/17 00:53:53;;;;;;;3.90;2.22;;;;;;;4.29;54.17;97702.19;2086532;28;20200;-64
2022/04/17 00:54:55;;;;;;;4.18;2.47;;;;;;;3.85;54.14;97641.09;2085816;28;20207;-64
2022/04/17 00:55:57;;;;;;;3.20;2.50;;;;;;;4.29;53.92;97693.53;2075262;28;20218;-64
2022/04/17 00:56:59;;;;;;;7.25;3.00;;;;;;;4.12;53.79;97666.31;2077551;28;20610;-64
2022/04/17 00:58:01;;;;;;;6.15;3.17;;;;;;;4.22;53.87;97686.81;2085558;28;20196;-64
2022/04/17 00:59:11;;;;;;;5.07;2.50;;;;;;;4.22;54.11;97692.84;2085663;28;20197;-64
2022/04/17 01:00:13;;;;;;;5.05;3.03;;;;;;;4.27;54.11;97698.78;2085620;28;20192;-64
2022/04/17 01:01:14;;;;;;;5.60;2.88;;;;;;;4.25;54.08;97695.34;2086153;28;20197;-64
2022/04/17 01:02:18;;;;;;;6.05;2.75;;;;;;;4.23;54.48;97691.94;2084066;28;20204;-64
2022/04/17 01:03:19;;;;;;;4.05;2.42;;;;;;;4.22;54.37;97692.00;2083514;28;20197;-64
2022/04/17 01:04:21;;;;;;;5.57;2.47;;;;;;;4.18;54.51;97699.00;2083141;28;20200;-64
2022/04/17 01:05:22;;;;;;;8.07;3.20;;;;;;;4.16;54.68;97691.25;2084786;28;20344;-63
2022/04/17 01:06:25;;;;;;;6.93;2.88;;;;;;;3.94;54.79;97656.44;2085002;28;20231;-64
2022/04/17 01:07:27;;;;;;;3.55;2.28;;;;;;;4.16;54.48;97687.81;2084371;28;20212;-64
2022/04/17 01:08:28;;;;;;;5.75;2.70;;;;;;;4.15;54.50;97679.19;2084485;28;20205;-64
2022/04/17 01:09:30;;;;;;;7.15;3.10;;;;;;;4.16;54.60;97686.06;2085860;28;20212;-64
2022/04/17 01:10:32;;;;;;;6.53;3.05;;;;;;;4.15;54.57;97683.50;2087165;28;20216;-64
2022/04/17 01:11:39;;;;;;;9.07;2.90;;;;;;;4.14;54.62;97679.25;2085515;28;20219;-64
2022/04/17 01:12:40;;;;;;;3.50;2.90;;;;;;;4.13;54.44;97680.97;2086726;28;20205;-64
2022/04/17 01:13:42;;;;;;;2.28;1.80;;;;;;;3.97;54.73;97683.09;2084873;28;20204;-64
2022/04/17 01:14:44;;;;;;;3.92;2.20;;;;;;;3.97;54.92;97682.25;2085214;28;20193;-63
2022/04/17 01:15:46;;;;;;;12.02;3.05;;;;;;;4.03;54.73;97679.50;2084288;28;20216;-64
2022/04/17 01:16:47;;;;;;;6.55;2.35;;;;;;;4.07;54.73;97670.75;2085813;28;20197;-64
2022/04/17 01:17:49;;;;;;;4.60;2.30;;;;;;;4.06;54.71;97676.84;2085132;28;20205;-63
2022/04/17 01:19:00;;;;;;;7.00;3.30;;;;;;;4.10;54.76;97680.22;2086630;28;20228;-63
2022/04/17 01:20:04;;;;;;;5.75;2.40;;;;;;;4.03;54.84;97679.50;2085240;28;20619;-64
2022/04/17 01:21:08;;;;;;;5.22;2.25;;;;;;;3.98;55.18;97678.78;2086300;28;20565;-64
2022/04/17 01:22:11;;;;;;;4.82;2.60;;;;;;;4.03;54.96;97681.25;2084883;28;20706;-63
2022/04/17 01:27:14;;;;;;;3.38;2.00;;;;;;;3.85;55.22;97678.22;2083561;28;20208;-64
2022/04/17 01:28:16;;;;;;;5.93;2.72;;;;;;;3.83;55.26;97673.97;2084335;28;20652;-63
2022/04/17 01:29:18;;;;;;;4.60;1.90;;;;;;;3.72;55.76;97677.69;2084430;28;20204;-64
2022/04/17 01:30:20;;;;;;;5.30;2.72;;;;;;;3.80;55.58;97674.03;2084186;28;20557;-63
2022/04/17 01:31:27;;;;;;;10.07;3.10;;;;;;;3.81;55.59;97676.59;2086972;28;20700;-64
2022/04/17 01:32:29;;;;;;;7.05;3.15;;;;;;;3.86;55.40;97669.56;2079688;28;20212;-64
2022/04/17 01:33:30;;;;;;;4.38;2.20;;;;;;;3.92;55.30;97663.34;2070266;28;20198;-64
2022/04/17 01:34:32;;;;;;;3.03;2.20;;;;;;;3.97;55.13;97666.69;2075010;28;20545;-64
2022/04/17 01:35:33;;;;;;;3.78;2.17;;;;;;;3.87;55.38;97665.22;2084811;28;20224;-63
2022/04/17 01:36:35;;;;;;;3.42;2.20;;;;;;;3.72;55.78;97666.44;2078879;28;20201;-64
2022/04/17 01:37:36;;;;;;;4.13;2.15;;;;;;;3.56;55.77;97629.72;2079824;28;20431;-64
2022/04/17 01:38:38;;;;;;;4.05;2.08;;;;;;;3.84;55.51;97660.13;2082410;28;20201;-63
2022/04/17 01:39:41;;;;;;;8.25;2.70;;;;;;;3.84;55.54;97667.88;2083121;28;20200;-64
2022/04/17 01:40:42;;;;;;;4.32;2.20;;;;;;;3.74;55.78;97669.84;2084108;28;20224;-63
2022/04/17 01:41:44;;;;;;;6.88;2.70;;;;;;;3.71;56.08;97659.59;2082355;28;20547;-63
2022/04/17 01:42:47;;;;;;;5.07;2.50;;;;;;;3.73;56.04;97660.41;2084459;28;20204;-64
2022/04/17 01:43:49;;;;;;;5.63;2.53;;;;;;;3.75;55.92;97667.22;2084812;28;20227;-63
2022/04/17 01:44:51;;;;;;;4.53;2.42;;;;;;;3.71;56.06;97660.44;2082500;28;20692;-64
2022/04/17 01:45:53;;;;;;;4.82;2.30;;;;;;;3.67;56.19;97658.81;2084856;28;20220;-63
2022/04/17 01:46:55;;;;;;;9.18;2.22;;;;;;;3.67;56.54;97663.97;2081274;28;20200;-64
2022/04/17 01:47:56;;;;;;;5.93;2.80;;;;;;;3.63;56.54;97656.34;2081476;28;20715;-64
2022/04/17 01:48:58;;;;;;;3.90;1.90;;;;;;;3.62;56.49;97644.25;2081899;28;20548;-64
2022/04/17 01:49:59;;;;;;;6.28;2.55;;;;;;;3.64;56.50;97658.03;2082576;28;20200;-63
2022/04/17 01:51:01;;;;;;;9.15;3.15;;;;;;;3.57;56.82;97652.16;2083861;28;20216;-64
2022/04/17 01:52:03;;;;;;;4.30;2.60;;;;;;;3.63;56.68;97654.59;2084801;28;20200;-64
2022/04/17 01:53:05;;;;;;;6.50;2.92;;;;;;;3.58;56.34;97648.66;2086448;28;20197;-64
2022/04/17 01:54:08;;;;;;;4.05;2.70;;;;;;;3.60;56.56;97653.81;2086605;28;20207;-63
2022/04/17 01:55:09;;;;;;;11.38;2.88;;;;;;;3.58;56.98;97659.00;2075676;28;20660;-63
2022/04/17 01:56:11;;;;;;;5.25;2.10;;;;;;;3.58;56.92;97647.81;2079504;28;20201;-63
2022/04/17 01:57:12;;;;;;;6.32;2.70;;;;;;;3.56;56.85;97640.91;2087429;28;20192;-64
2022/04/17 01:58:14;;;;;;;6.63;2.78;;;;;;;3.44;57.07;97636.03;2084329;28;20209;-64
2022/04/17 01:59:17;;;;;;;3.30;2.10;;;;;;;3.45;57.29;97648.13;2084719;28;20197;-63
2022/04/17 02:00:18;;;;;;;6.93;2.88;;;;;;;3.51;57.42;97654.88;2076610;28;20887;-64
2022/04/17 02:01:20;;;;;;;5.00;2.22;;;;;;;3.46;57.49;97654.13;2077656;28;20200;-63
2022/04/17 02:02:22;;;;;;;6.20;2.53;;;;;;;3.46;57.57;97654.13;2075476;28;20625;-64
2022/04/17 02:03:24;;;;;;;4.95;2.80;;;;;;;3.39;57.82;97637.03;2085122;28;20533;-64
2022/04/17 02:04:27;;;;;;;5.00;2.10;;;;;;;3.43;57.97;97651.59;2085986;28;20232;-63
2022/04/17 02:05:28;;;;;;;5.38;2.83;;;;;;;3.44;57.93;97648.16;2083030;28;20434;-63
2022/04/17 02:06:30;;;;;;;6.43;2.47;;;;;;;3.48;58.39;97647.19;2085212;28;20594;-63
2022/04/17 02:07:32;;;;;;;4.88;2.90;;;;;;;3.10;57.96;97594.56;2083846;28;20243;-64
2022/04/17 02:08:33;;;;;;;8.70;2.70;;;;;;;3.44;58.13;97640.38;2082001;28;20201;-63
2022/04/17 02:09:35;;;;;;;8.40;2.80;;;;;;;3.47;57.86;97650.63;2086041;28;20207;-64
2022/04/17 02:10:36;;;;;;;7.95;2.53;;;;;;;3.50;57.84;97642.81;2084977;28;20437;-63
2022/04/17 02:11:39;;;;;;;5.15;2.30;;;;;;;3.34;58.00;97635.41;2084756;28;20193;-63
2022/04/17 02:12:40;;;;;;;6.97;2.97;;;;;;;3.24;57.96;97628.75;2084545;28;20193;-64
2022/04/17 02:13:42;;;;;;;7.38;2.60;;;;;;;3.34;58.05;97643.16;2084698;28;20207;-64
2022/04/17 02:14:44;;;;;;;6.15;2.70;;;;;;;3.32;58.35;97641.50;2084769;28;20204;-63
2022/04/17 02:15:45;;;;;;;5.50;2.55;;;;;;;3.28;58.59;97635.53;2083729;28;20224;-63
2022/04/17 02:16:50;;;;;;;5.95;2.70;;;;;;;3.27;58.23;97633.00;2084316;28;20196;-64
2022/04/17 02:17:53;;;;;;;5.60;2.40;;;;;;;3.30;58.35;97632.94;2082081;28;20193;-63
2022/04/17 02:18:54;;;;;;;5.13;3.08;;;;;;;3.26;58.41;97636.47;2081658;28;20192;-64
2022/04/17 02:19:57;;;;;;;2.80;2.28;;;;;;;3.24;58.52;97626.16;2080579;28;20259;-63
2022/04/17 02:20:59;;;;;;;5.47;2.70;;;;;;;3.24;58.43;97628.75;2080815;28;20259;-63
2022/04/17 02:22:01;;;;;;;2.80;2.22;;;;;;;3.27;58.40;97630.41;2084098;28;20595;-63
2022/04/17 02:23:02;;;;;;;8.65;2.13;;;;;;;3.25;58.75;97630.44;2078842;28;20216;-64
2022/04/17 02:24:05;;;;;;;3.58;2.13;;;;;;;3.13;58.84;97633.31;2071361;28;20213;-64
2022/04/17 02:25:06;;;;;;;4.13;2.47;;;;;;;3.16;58.56;97641.00;2067686;28;20209;-64
2022/04/17 02:26:09;;;;;;;3.95;2.42;;;;;;;3.18;58.75;97628.88;2075008;28;20224;-63
2022/04/17 02:27:11;;;;;;;6.20;2.55;;;;;;;3.18;58.84;97634.06;2084994;28;20196;-64
2022/04/17 02:28:16;;;;;;;3.97;2.50;;;;;;;3.14;59.09;97622.09;2085682;28;20835;-63
2022/04/17 02:29:17;;;;;;;6.82;2.50;;;;;;;3.14;59.17;97624.66;2080962;28;20197;-63
2022/04/17 02:30:19;;;;;;;4.57;2.53;;;;;;;3.16;58.81;97620.31;2082364;28;20200;-64
2022/04/17 02:31:20;;;;;;;5.25;2.50;;;;;;;3.14;59.08;97624.66;2084849;28;20192;-64
2022/04/17 02:32:21;;;;;;;4.85;2.50;;;;;;;3.08;59.02;97635.16;2076693;28;20288;-64
2022/04/17 02:33:23;;;;;;;6.68;3.40;;;;;;;3.08;59.47;97630.00;2079039;28;20535;-64
2022/04/17 02:34:25;;;;;;;6.22;2.53;;;;;;;3.04;59.52;97625.75;2087688;28;20532;-63
2022/04/17 02:35:26;;;;;;;3.25;2.40;;;;;;;2.92;59.56;97612.22;2084156;28;20205;-63
2022/04/17 02:36:28;;;;;;;6.15;3.40;;;;;;;2.85;59.60;97620.13;2082638;28;20196;-63
2022/04/17 02:37:29;;;;;;;5.63;2.60;;;;;;;2.88;59.91;97625.22;2084634;28;20200;-64
2022/04/17 02:38:31;;;;;;;5.57;2.95;;;;;;;2.97;59.45;97625.03;2084923;28;20204;-63
2022/04/17 02:39:33;;;;;;;5.40;2.67;;;;;;;2.99;59.81;97625.84;2076104;28;20206;-63
2022/04/17 02:40:34;;;;;;;3.67;2.60;;;;;;;3.00;59.55;97622.41;2075325;28;20232;-63
2022/04/17 02:41:36;;;;;;;3.58;2.55;;;;;;;3.04;59.39;97623.16;2083017;28;20215;-63
2022/04/17 02:42:37;;;;;;;5.20;2.60;;;;;;;3.02;59.14;97619.75;2085679;28;20196;-63
2022/04/17 02:43:39;;;;;;;5.55;2.78;;;;;;;2.99;59.52;97617.25;2084139;28;20196;-64
2022/04/17 02:44:40;;;;;;;4.25;2.47;;;;;;;2.89;59.53;97608.84;2085887;28;20201;-64
2022/04/17 02:45:43;;;;;;;4.15;2.85;;;;;;;2.82;59.28;97591.72;2085168;28;20220;-64
2022/04/17 02:48:04;;;;;;;4.03;2.20;;;;;;;3.09;59.21;97611.81;2084019;28;20212;-63
2022/04/17 02:49:06;;;;;;;4.32;2.97;;;;;;;2.99;59.24;97614.66;2085108;28;20199;-63
2022/04/17 02:50:17;;;;;;;5.32;2.90;;;;;;;2.82;59.54;97597.75;2083997;28;20203;-63
2022/04/17 02:51:18;;;;;;;8.13;2.53;;;;;;;2.97;59.09;97614.69;2083989;28;20402;-63
2022/04/17 02:52:20;;;;;;;6.88;2.45;;;;;;;2.92;59.36;97616.50;2084539;28;20193;-64
2022/04/17 02:53:21;;;;;;;4.90;2.92;;;;;;;2.72;59.59;97584.16;2081902;28;20196;-63
2022/04/17 02:54:23;;;;;;;5.55;3.35;;;;;;;2.88;59.72;97613.16;2085103;28;20196;-64
2022/04/17 02:55:24;;;;;;;8.05;2.90;;;;;;;2.85;59.54;97613.22;2084444;28;20192;-64
2022/04/17 02:56:26;;;;;;;6.88;2.78;;;;;;;2.72;60.07;97588.50;2079329;28;20197;-63
2022/04/17 02:57:28;;;;;;;4.55;2.72;;;;;;;2.87;59.62;97602.84;2075509;28;20200;-63
2022/04/17 02:58:29;;;;;;;5.00;3.17;;;;;;;2.75;60.25;97604.81;2074323;28;20208;-63
2022/04/17 02:59:31;;;;;;;5.78;3.40;;;;;;;2.69;60.26;97596.34;2079299;28;20211;-63
2022/04/17 03:00:32;;;;;;;4.53;2.65;;;;;;;2.52;60.04;97563.06;2084062;28;20776;-64
2022/04/17 03:05:37;;;;;;;4.30;2.75;;;;;;;2.77;60.04;97607.38;2084799;28;20247;-63
2022/04/17 03:06:38;;;;;;;4.10;2.75;;;;;;;2.75;60.18;97598.78;2085037;28;20200;-63
2022/04/17 03:07:40;;;;;;;5.03;2.58;;;;;;;2.78;60.30;97606.47;2083779;28;20200;-63
2022/04/17 03:08:42;;;;;;;6.45;2.70;;;;;;;2.67;60.20;97601.53;2083312;28;20213;-63
2022/04/17 03:09:44;;;;;;;11.52;3.97;;;;;;;2.63;60.59;97599.06;2083013;28;20197;-63
2022/04/17 03:10:49;;;;;;;5.40;2.75;;;;;;;2.54;60.76;97584.56;2084069;28;20231;-63
2022/04/17 03:11:50;;;;;;;7.28;2.80;;;;;;;2.68;60.57;97602.38;2084933;28;20200;-64
2022/04/17 03:12:52;;;;;;;5.70;2.70;;;;;;;2.52;60.62;97594.94;2085471;28;20196;-63
2022/04/17 03:13:54;;;;;;;5.03;2.90;;;;;;;2.64;60.75;97604.19;2082133;28;20608;-63
2022/04/17 03:14:55;;;;;;;6.43;2.90;;;;;;;2.62;60.45;97597.34;2080996;28;20251;-63
2022/04/17 03:15:57;;;;;;;6.78;3.47;;;;;;;2.69;60.68;97604.09;2077544;28;20896;-63
2022/04/17 03:16:58;;;;;;;5.82;2.90;;;;;;;2.66;60.68;97615.34;2079138;28;20200;-64
2022/04/17 03:18:00;;;;;;;5.28;3.20;;;;;;;2.47;61.00;97596.78;2084119;28;20212;-63
2022/04/17 03:19:01;;;;;;;4.28;2.38;;;;;;;2.49;61.05;97601.91;2084199;28;20643;-63
2022/04/17 03:20:05;;;;;;;3.90;2.45;;;;;;;2.53;60.97;97599.25;2083819;28;20208;-63
2022/04/17 03:21:06;;;;;;;3.95;2.83;;;;;;;2.54;60.81;97602.66;2083694;28;20221;-63
2022/04/17 03:22:08;;;;;;;8.85;2.88;;;;;;;2.64;60.77;97616.25;2084765;28;20204;-63
2022/04/17 03:23:10;;;;;;;6.70;2.40;;;;;;;2.66;60.99;97606.72;2077908;28;20205;-63
2022/04/17 03:24:12;;;;;;;3.50;2.40;;;;;;;2.65;60.81;97613.66;2070774;28;20263;-63
2022/04/17 03:25:13;;;;;;;4.28;2.90;;;;;;;2.46;61.13;97589.91;2070440;28;20364;-63
2022/04/17 03:26:15;;;;;;;4.60;2.45;;;;;;;2.62;61.34;97616.28;2078040;28;20205;-64
2022/04/17 03:27:16;;;;;;;5.05;2.90;;;;;;;2.62;61.31;97607.69;2083627;28;20836;-63
2022/04/17 03:28:18;;;;;;;6.95;3.03;;;;;;;2.62;61.44;97610.28;2084316;28;20227;-63
2022/04/17 03:29:20;;;;;;;7.60;3.15;;;;;;;2.61;61.36;97609.44;2084596;28;20212;-63
2022/04/17 03:30:21;;;;;;;5.25;2.58;;;;;;;2.62;61.33;97605.94;2083921;28;20565;-64
2022/04/17 03:31:23;;;;;;;5.30;2.60;;;;;;;2.53;61.75;97604.41;2082542;28;20197;-63
2022/04/17 03:32:25;;;;;;;5.55;2.88;;;;;;;2.52;61.30;97599.25;2084782;28;20192;-63
2022/04/17 03:33:28;;;;;;;4.20;3.17;;;;;;;2.50;61.37;97604.47;2074262;28;20220;-63
2022/04/17 03:34:29;;;;;;;4.07;2.50;;;;;;;2.54;61.39;97594.91;2078077;28;20203;-63
2022/04/17 03:35:31;;;;;;;7.10;2.95;;;;;;;2.35;61.49;97581.50;2086769;28;20220;-64
2022/04/17 03:36:34;;;;;;;6.00;3.70;;;;;;;2.53;61.40;97603.56;2085762;28;20223;-64
2022/04/17 03:37:36;;;;;;;8.10;3.30;;;;;;;2.48;61.62;97601.06;2085061;28;20203;-64
2022/04/17 03:38:37;;;;;;;9.35;3.70;;;;;;;2.37;62.07;97601.28;2082392;28;20195;-63
2022/04/17 03:39:38;;;;;;;4.07;2.85;;;;;;;2.31;62.20;97591.09;2083331;28;20197;-63
2022/04/17 03:40:40;;;;;;;6.55;2.80;;;;;;;2.36;62.10;97601.31;2074573;28;20723;-64
2022/04/17 03:41:41;;;;;;;5.95;3.20;;;;;;;2.21;62.66;97586.94;2078855;28;20201;-64
2022/04/17 03:42:44;;;;;;;4.53;2.55;;;;;;;2.31;62.21;97601.41;2083679;28;20560;-64
2022/04/17 03:43:46;;;;;;;4.38;2.70;;;;;;;2.25;62.62;97598.94;2083362;28;20691;-63
2022/04/17 03:44:48;;;;;;;7.90;3.05;;;;;;;2.30;62.66;97598.84;2083950;28;20197;-63
2022/04/17 03:45:49;;;;;;;12.07;3.03;;;;;;;2.34;62.84;97600.50;2083929;28;20220;-64
2022/04/17 03:46:51;;;;;;;4.55;2.47;;;;;;;2.27;63.14;97606.66;2084992;28;20250;-64
2022/04/17 03:47:53;;;;;;;6.88;3.20;;;;;;;2.04;63.29;97561.47;2084138;28;20193;-63
2022/04/17 03:48:54;;;;;;;4.40;2.90;;;;;;;2.28;63.72;97600.63;2084304;28;20254;-64
2022/04/17 03:49:55;;;;;;;3.80;2.88;;;;;;;2.18;63.73;97593.03;2085233;28;20212;-63
2022/04/17 03:50:57;;;;;;;5.85;3.15;;;;;;;2.17;64.01;97593.06;2087884;28;20227;-64
2022/04/17 03:52:00;;;;;;;6.40;2.97;;;;;;;2.17;64.07;97606.00;2084999;28;20427;-63
2022/04/17 03:53:01;;;;;;;5.05;2.80;;;;;;;2.23;63.90;97599.84;2085296;28;20201;-64
2022/04/17 03:54:03;;;;;;;5.25;2.95;;;;;;;2.04;63.61;97566.63;2085890;28;20552;-64
2022/04/17 03:55:05;;;;;;;5.53;2.95;;;;;;;2.26;63.25;97594.63;2087215;28;20192;-63
2022/04/17 03:56:06;;;;;;;5.57;3.00;;;;;;;2.22;63.57;97604.19;2084806;28;20220;-64
2022/04/17 03:57:08;;;;;;;4.10;2.60;;;;;;;2.17;63.65;97600.81;2086737;28;20209;-63
2022/04/17 03:58:09;;;;;;;6.68;2.83;;;;;;;2.20;63.22;97597.34;2086402;28;20740;-64
2022/04/17 03:59:11;;;;;;;7.40;3.05;;;;;;;2.04;62.88;97564.03;2086670;28;20206;-63
2022/04/17 04:00:14;;;;;;;6.38;3.03;;;;;;;2.14;62.91;97590.56;2076473;28;20228;-63
2022/04/17 04:01:15;;;;;;;5.22;2.70;;;;;;;2.21;62.66;97578.34;2076546;28;20200;-64
2022/04/17 04:02:16;;;;;;;6.07;3.05;;;;;;;2.19;62.63;97580.97;2085198;28;20255;-63
2022/04/17 04:03:18;;;;;;;9.05;3.78;;;;;;;1.93;63.07;97546.16;2085007;28;20307;-63
2022/04/17 04:04:20;;;;;;;5.70;2.72;;;;;;;2.10;63.21;97583.75;2084188;28;20372;-63
2022/04/17 04:05:22;;;;;;;5.45;3.70;;;;;;;2.09;63.16;97587.19;2087475;28;20196;-63
2022/04/17 04:06:23;;;;;;;6.28;3.20;;;;;;;1.95;63.49;97564.22;2087612;28;20807;-64
2022/04/17 04:07:25;;;;;;;6.65;3.05;;;;;;;1.93;63.60;97571.97;2085914;28;20193;-63
2022/04/17 04:08:26;;;;;;;5.03;2.55;;;;;;;1.99;64.08;97589.09;2085395;28;20716;-63
2022/04/17 04:09:28;;;;;;;10.77;3.70;;;;;;;1.97;64.09;97580.53;2084400;28;20197;-63
2022/04/17 04:10:29;;;;;;;7.55;3.30;;;;;;;1.96;63.80;97568.47;2086792;28;25578;-63
2022/04/17 04:11:31;;;;;;;5.55;3.22;;;;;;;2.05;63.65;97577.81;2083992;28;20194;-63
2022/04/17 04:12:33;;;;;;;4.43;2.90;;;;;;;2.13;63.01;97579.34;2086381;28;20236;-64
2022/04/17 04:13:34;;;;;;;4.80;2.90;;;;;;;2.12;63.32;97575.06;2088473;28;20549;-63
2022/04/17 04:14:36;;;;;;;7.55;3.33;;;;;;;2.10;63.16;97582.00;2087329;28;20213;-63
2022/04/17 04:15:38;;;;;;;9.65;2.75;;;;;;;2.03;63.21;97584.75;2084707;28;20216;-63
2022/04/17 04:16:40;;;;;;;4.90;2.45;;;;;;;2.10;63.56;97589.75;2086285;28;20738;-63
2022/04/17 04:17:42;;;;;;;6.55;2.92;;;;;;;2.12;63.59;97590.59;2084527;28;20246;-64
2022/04/17 04:18:43;;;;;;;5.28;2.70;;;;;;;2.15;63.30;97587.06;2083976;28;20204;-63
2022/04/17 04:19:44;;;;;;;5.20;2.38;;;;;;;2.11;63.27;97601.78;2085207;28;20225;-63
2022/04/17 04:20:46;;;;;;;4.80;2.90;;;;;;;2.13;63.74;97599.19;2086200;28;20220;-64
2022/04/17 04:21:47;;;;;;;4.10;2.50;;;;;;;2.09;63.59;97603.56;2080295;28;20216;-63
2022/04/17 04:22:49;;;;;;;4.78;3.05;;;;;;;2.05;63.98;97601.91;2079172;28;20208;-63
2022/04/17 04:23:50;;;;;;;5.90;2.95;;;;;;;1.99;64.43;97602.03;2085902;28;20205;-63
2022/04/17 04:24:52;;;;;;;3.80;2.63;;;;;;;1.87;65.07;97604.84;2085831;28;20197;-63
2022/04/17 04:25:53;;;;;;;9.32;2.88;;;;;;;1.68;65.70;97593.97;2083320;28;20327;-63
2022/04/17 04:28:33;;;;;;;6.18;2.67;;;;;;;1.66;65.65;97603.47;2087068;28;20199;-63
2022/04/17 04:29:35;;;;;;;5.00;2.70;;;;;;;1.40;66.30;97599.63;2085417;28;20210;-63
2022/04/17 04:30:37;;;;;;;4.43;2.75;;;;;;;1.34;66.36;97603.13;2084855;28;20265;-63
2022/04/17 04:31:38;;;;;;;8.20;3.13;;;;;;;1.26;66.86;97591.25;2086634;28;20196;-63
2022/04/17 04:32:52;;;;;;;7.95;2.65;;;;;;;1.10;67.13;97577.75;2079110;28;20702;-64
2022/04/17 04:33:53;;;;;;;3.33;2.50;;;;;;;1.21;66.73;97593.88;2081070;28;20699;-63
2022/04/17 04:34:59;;;;;;;10.23;3.20;;;;;;;1.06;67.33;97578.63;2086031;28;20196;-64
2022/04/17 04:36:04;;;;;;;5.47;3.03;;;;;;;0.84;67.60;97534.25;2085344;28;20591;-63
2022/04/17 04:37:06;;;;;;;5.13;3.20;;;;;;;0.89;66.95;97541.06;2086477;28;20578;-64
2022/04/17 04:38:08;;;;;;;8.18;3.00;;;;;;;1.19;67.41;97611.13;2085398;28;20204;-63
2022/04/17 04:39:09;;;;;;;3.42;2.40;;;;;;;1.30;67.25;97604.06;2085744;28;20193;-64
2022/04/17 04:40:11;;;;;;;5.10;2.70;;;;;;;1.33;67.52;97606.63;2085008;28;20224;-65
2022/04/17 04:41:13;;;;;;;4.97;3.00;;;;;;;1.31;67.47;97607.50;2086665;28;20192;-67
2022/04/17 04:42:14;;;;;;;4.38;2.70;;;;;;;1.44;67.52;97605.59;2083469;28;20200;-65
2022/04/17 04:43:16;;;;;;;15.50;6.38;;;;;;;1.36;67.25;97603.13;2083661;28;20539;-63
2022/04/17 04:44:17;;;;;;;21.55;10.80;;;;;;;1.32;67.54;97610.06;2084113;28;20205;-65
2022/04/17 04:46:38;;;;;;;4.82;3.50;;;;;;;1.27;66.99;97596.34;2086103;28;20316;-66
2022/04/17 04:47:42;;;;;;;5.15;3.15;;;;;;;1.34;67.39;97603.13;2086429;28;20205;-66
2022/04/17 04:50:05;;;;;;;4.18;2.97;;;;;;;1.24;67.54;97596.44;2086552;28;20748;-66
2022/04/17 04:51:07;;;;;;;4.90;2.80;;;;;;;1.21;67.38;97588.72;2086601;28;20231;-66
2022/04/17 04:52:08;;;;;;;4.00;3.05;;;;;;;1.19;67.71;97601.63;2087367;28;20254;-66
2022/04/17 04:53:10;;;;;;;6.55;3.42;;;;;;;1.25;67.02;97598.13;2087426;28;20231;-65
2022/04/17 04:54:12;;;;;;;10.75;2.95;;;;;;;1.10;67.47;97580.31;2084332;28;20546;-66
2022/04/17 04:55:14;;;;;;;8.98;4.15;;;;;;;1.26;67.25;97604.16;2085585;28;20204;-65
2022/04/17 04:56:16;;;;;;;4.32;2.55;;;;;;;0.79;68.23;97584.19;2086868;28;20894;-64
2022/04/17 04:57:17;;;;;;;5.32;3.08;;;;;;;0.79;69.19;97599.66;2085204;28;20197;-64
2022/04/17 04:58:19;;;;;;;5.70;3.00;;;;;;;0.90;68.29;97594.38;2079935;28;20240;-64
2022/04/17 04:59:21;;;;;;;7.40;3.33;;;;;;;1.11;67.96;97597.50;2080418;28;20204;-65
2022/04/17 05:00:22;;;;;;;4.40;2.65;;;;;;;1.11;67.92;97585.44;2086398;28;20197;-65
2022/04/17 05:01:24;;;;;;;8.38;3.15;;;;;;;0.94;68.41;97585.72;2082752;28;20197;-65
2022/04/17 05:02:25;;;;;;;7.78;3.45;;;;;;;1.06;68.54;97592.41;2084871;28;20201;-65
2022/04/17 05:03:26;;;;;;;6.78;3.13;;;;;;;1.06;68.49;97588.94;2085040;28;20201;-65
2022/04/17 05:04:29;;;;;;;5.72;3.22;;;;;;;1.15;68.33;97596.56;2084578;28;20734;-65
2022/04/17 05:05:31;;;;;;;6.15;3.10;;;;;;;1.13;68.31;97567.34;2084914;28;20216;-65
2022/04/17 05:06:33;;;;;;;5.38;3.60;;;;;;;1.17;68.68;97594.81;2083439;28;20208;-65
2022/04/17 05:07:34;;;;;;;5.00;3.00;;;;;;;1.26;68.28;97605.00;2084991;28;20196;-65
2022/04/17 05:08:36;;;;;;;7.13;2.95;;;;;;;1.34;67.58;97603.13;2082349;28;20204;-65
2022/04/17 05:09:38;;;;;;;4.10;2.97;;;;;;;1.43;67.51;97602.16;2087826;28;20207;-65